createdAt,value
2017-02-06T00:00:55.016Z,929.8
2017-02-06T00:02:03.094Z,929.7
2017-02-06T00:03:11.186Z,929.8
2017-02-06T00:04:19.425Z,929.8
2017-02-06T00:05:27.421Z,929.8
2017-02-06T00:06:35.458Z,929.8
2017-02-06T00:07:43.541Z,929.8
2017-02-06T00:08:51.631Z,929.8
2017-02-06T00:09:59.730Z,929.8
2017-02-06T00:11:07.886Z,929.8
2017-02-06T00:12:15.898Z,929.8
2017-02-06T00:13:23.987Z,929.8
2017-02-06T00:14:32.391Z,929.8
2017-02-06T00:15:40.341Z,929.8
2017-02-06T00:16:48.303Z,929.8
2017-02-06T00:17:56.334Z,929.8
2017-02-06T00:19:04.436Z,929.8
2017-02-06T00:20:12.514Z,929.7
2017-02-06T00:21:20.621Z,929.7
2017-02-06T00:22:28.751Z,929.7
2017-02-06T00:23:36.788Z,929.7
2017-02-06T00:24:44.871Z,929.7
2017-02-06T00:25:53.147Z,929.7
2017-02-06T00:27:01.052Z,929.8
2017-02-06T00:28:09.262Z,929.8
2017-02-06T00:29:17.226Z,929.9
2017-02-06T00:30:25.374Z,929.9
2017-02-06T00:31:33.404Z,929.9
2017-02-06T00:32:41.487Z,930.0
2017-02-06T00:33:49.630Z,929.9
2017-02-06T00:34:57.665Z,929.9
2017-02-06T00:36:05.780Z,929.9
2017-02-06T00:37:13.972Z,929.9
2017-02-06T00:38:21.933Z,929.9
2017-02-06T00:39:30.139Z,929.9
2017-02-06T00:40:38.103Z,930.0
2017-02-06T00:41:46.194Z,930.0
2017-02-06T00:42:54.281Z,930.0
2017-02-06T00:44:02.363Z,930.0
2017-02-06T00:45:10.513Z,930.1
2017-02-06T00:46:18.674Z,930.1
2017-02-06T00:47:26.746Z,930.1
2017-02-06T00:48:34.726Z,930.2
2017-02-06T00:49:42.813Z,930.2
2017-02-06T00:50:50.956Z,930.2
2017-02-06T00:51:58.986Z,930.3
2017-02-06T00:53:07.142Z,930.3
2017-02-06T00:54:15.165Z,930.3
2017-02-06T00:55:23.249Z,930.3
2017-02-06T00:56:31.455Z,930.4
2017-02-06T00:57:39.429Z,930.3
2017-02-06T00:58:47.604Z,930.3
2017-02-06T00:59:55.606Z,930.3
2017-02-06T01:01:03.692Z,930.3
2017-02-06T01:02:11.840Z,930.3
2017-02-06T01:03:19.875Z,930.3
2017-02-06T01:04:27.957Z,930.3
2017-02-06T01:05:36.048Z,930.4
2017-02-06T01:06:44.134Z,930.4
2017-02-06T01:07:52.274Z,930.4
2017-02-06T01:09:00.305Z,930.4
2017-02-06T01:10:08.395Z,930.4
2017-02-06T01:11:16.485Z,930.4
2017-02-06T01:12:24.567Z,930.4
2017-02-06T01:13:32.945Z,930.5
2017-02-06T01:14:40.899Z,930.5
2017-02-06T01:15:48.832Z,930.5
2017-02-06T01:16:56.917Z,930.5
2017-02-06T01:18:05.065Z,930.6
2017-02-06T01:19:13.153Z,930.6
2017-02-06T01:20:21.188Z,930.6
2017-02-06T01:21:29.285Z,930.7
2017-02-06T01:22:37.376Z,930.7
2017-02-06T01:23:45.461Z,930.7
2017-02-06T01:24:53.781Z,930.7
2017-02-06T01:26:01.634Z,930.7
2017-02-06T01:27:09.721Z,930.7
2017-02-06T01:28:17.800Z,930.7
2017-02-06T01:29:25.891Z,930.8
2017-02-06T01:30:34.036Z,930.8
2017-02-06T01:31:42.068Z,930.8
2017-02-06T01:32:50.158Z,930.8
2017-02-06T01:33:58.305Z,930.8
2017-02-06T01:35:06.348Z,930.8
2017-02-06T01:36:14.545Z,930.8
2017-02-06T01:37:22.505Z,930.8
2017-02-06T01:38:30.598Z,930.8
2017-02-06T01:39:38.686Z,930.7
2017-02-06T01:40:46.768Z,930.8
2017-02-06T01:41:54.923Z,930.8
2017-02-06T01:43:02.949Z,930.8
2017-02-06T01:44:11.037Z,930.7
2017-02-06T01:45:19.123Z,930.8
2017-02-06T01:46:27.350Z,930.8
2017-02-06T01:47:35.420Z,930.8
2017-02-06T01:48:43.394Z,930.8
2017-02-06T01:49:51.596Z,930.8
2017-02-06T01:50:59.561Z,930.8
2017-02-06T01:52:07.648Z,930.9
2017-02-06T01:53:15.797Z,930.9
2017-02-06T01:54:23.836Z,930.9
2017-02-06T01:55:31.915Z,930.9
2017-02-06T01:56:40.165Z,930.9
2017-02-06T01:57:48.242Z,930.9
2017-02-06T01:58:56.237Z,930.9
2017-02-06T02:00:04.268Z,930.9
2017-02-06T02:01:12.355Z,930.9
2017-02-06T02:02:20.443Z,930.9
2017-02-06T02:03:28.528Z,930.9
2017-02-06T02:04:36.736Z,930.9
2017-02-06T02:05:44.760Z,930.9
2017-02-06T02:06:52.786Z,930.9
2017-02-06T02:08:00.989Z,930.9
2017-02-06T02:09:08.965Z,930.9
2017-02-06T02:10:17.113Z,931.0
2017-02-06T02:11:25.137Z,931.0
2017-02-06T02:12:33.227Z,931.0
2017-02-06T02:13:41.317Z,931.0
2017-02-06T02:14:49.403Z,931.0
2017-02-06T02:15:57.545Z,931.0
2017-02-06T02:17:05.576Z,931.1
2017-02-06T02:18:13.668Z,931.1
2017-02-06T02:19:21.781Z,931.2
2017-02-06T02:20:29.837Z,931.2
2017-02-06T02:21:38.042Z,931.2
2017-02-06T02:22:46.010Z,931.2
2017-02-06T02:23:54.248Z,931.3
2017-02-06T02:25:02.180Z,931.3
2017-02-06T02:26:10.272Z,931.3
2017-02-06T02:27:18.410Z,931.3
2017-02-06T02:28:26.445Z,931.3
2017-02-06T02:29:34.529Z,931.3
2017-02-06T02:30:42.614Z,931.4
2017-02-06T02:31:50.700Z,931.4
2017-02-06T02:32:58.845Z,931.4
2017-02-06T02:34:06.975Z,931.5
2017-02-06T02:35:15.025Z,931.5
2017-02-06T02:36:23.047Z,931.5
2017-02-06T02:37:31.250Z,931.5
2017-02-06T02:38:39.275Z,931.5
2017-02-06T02:39:47.302Z,931.5
2017-02-06T02:40:55.397Z,931.6
2017-02-06T02:42:03.480Z,931.6
2017-02-06T02:43:11.564Z,931.6
2017-02-06T02:44:19.711Z,931.6
2017-02-06T02:45:27.873Z,931.6
2017-02-06T02:46:35.826Z,931.7
2017-02-06T02:47:43.910Z,931.7
2017-02-06T02:48:52.005Z,931.7
2017-02-06T02:50:00.215Z,931.7
2017-02-06T02:51:08.173Z,931.7
2017-02-06T02:52:16.265Z,931.8
2017-02-06T02:53:24.407Z,931.8
2017-02-06T02:54:32.430Z,931.8
2017-02-06T02:55:40.684Z,931.8
2017-02-06T02:56:48.729Z,931.8
2017-02-06T02:57:56.694Z,931.8
2017-02-06T02:59:04.777Z,931.8
2017-02-06T03:00:12.866Z,931.8
2017-02-06T03:01:21.071Z,931.9
2017-02-06T03:02:29.042Z,931.9
2017-02-06T03:03:37.126Z,931.9
2017-02-06T03:04:45.214Z,931.9
2017-02-06T03:05:53.299Z,931.9
2017-02-06T03:07:01.440Z,932.0
2017-02-06T03:08:09.474Z,932.0
2017-02-06T03:09:17.687Z,932.0
2017-02-06T03:10:25.646Z,932.0
2017-02-06T03:11:33.738Z,932.0
2017-02-06T03:12:41.885Z,932.0
2017-02-06T03:13:49.924Z,932.0
2017-02-06T03:14:57.999Z,932.0
2017-02-06T03:16:06.091Z,932.0
2017-02-06T03:17:14.286Z,932.0
2017-02-06T03:18:22.472Z,932.1
2017-02-06T03:19:30.354Z,932.1
2017-02-06T03:20:38.444Z,932.1
2017-02-06T03:21:46.688Z,932.1
2017-02-06T03:22:54.614Z,932.1
2017-02-06T03:24:02.755Z,932.2
2017-02-06T03:25:10.841Z,932.2
2017-02-06T03:26:18.873Z,932.2
2017-02-06T03:27:26.963Z,932.2
2017-02-06T03:28:35.173Z,932.2
2017-02-06T03:29:43.191Z,932.3
2017-02-06T03:30:51.217Z,932.3
2017-02-06T03:31:59.312Z,932.3
2017-02-06T03:33:07.403Z,932.3
2017-02-06T03:34:15.483Z,932.4
2017-02-06T03:35:23.694Z,932.4
2017-02-06T03:36:31.663Z,932.4
2017-02-06T03:37:39.747Z,932.4
2017-02-06T03:38:47.895Z,932.4
2017-02-06T03:39:55.973Z,932.5
2017-02-06T03:41:04.058Z,932.5
2017-02-06T03:42:12.085Z,932.5
2017-02-06T03:43:20.172Z,932.5
2017-02-06T03:44:28.442Z,932.6
2017-02-06T03:45:36.348Z,932.6
2017-02-06T03:46:44.491Z,932.7
2017-02-06T03:47:52.525Z,932.7
2017-02-06T03:49:00.613Z,932.7
2017-02-06T03:50:08.702Z,932.7
2017-02-06T03:51:16.791Z,932.7
2017-02-06T03:52:24.996Z,932.7
2017-02-06T03:53:32.963Z,932.7
2017-02-06T03:54:41.148Z,932.7
2017-02-06T03:55:49.235Z,932.8
2017-02-06T03:56:57.283Z,932.8
2017-02-06T03:58:05.369Z,932.7
2017-02-06T03:59:13.404Z,932.8
2017-02-06T04:00:21.494Z,932.8
2017-02-06T04:01:29.586Z,932.8
2017-02-06T04:02:37.665Z,932.8
2017-02-06T04:03:45.872Z,932.8
2017-02-06T04:04:53.840Z,932.8
2017-02-06T04:06:01.921Z,932.8
2017-02-06T04:07:10.010Z,932.8
2017-02-06T04:08:18.106Z,932.9
2017-02-06T04:09:26.255Z,932.9
2017-02-06T04:10:34.291Z,932.9
2017-02-06T04:11:42.377Z,932.9
2017-02-06T04:12:50.554Z,932.9
2017-02-06T04:13:58.551Z,932.9
2017-02-06T04:15:06.756Z,932.9
2017-02-06T04:16:14.897Z,932.9
2017-02-06T04:17:22.974Z,933.0
2017-02-06T04:18:30.894Z,932.9
2017-02-06T04:19:38.981Z,933.0
2017-02-06T04:20:47.121Z,933.1
2017-02-06T04:21:55.157Z,933.1
2017-02-06T04:23:03.247Z,933.1
2017-02-06T04:24:11.339Z,933.1
2017-02-06T04:25:19.423Z,933.2
2017-02-06T04:26:27.568Z,933.2
2017-02-06T04:27:35.741Z,933.3
2017-02-06T04:28:43.810Z,933.3
2017-02-06T04:29:51.772Z,933.3
2017-02-06T04:30:59.861Z,933.4
2017-02-06T04:32:08.004Z,933.4
2017-02-06T04:33:16.037Z,933.4
2017-02-06T04:34:24.130Z,933.4
2017-02-06T04:35:32.217Z,933.5
2017-02-06T04:36:40.303Z,933.5
2017-02-06T04:37:48.460Z,933.5
2017-02-06T04:38:56.477Z,933.6
2017-02-06T04:40:04.567Z,933.6
2017-02-06T04:41:12.655Z,933.6
2017-02-06T04:42:20.745Z,933.6
2017-02-06T04:43:28.958Z,933.7
2017-02-06T04:44:36.977Z,933.7
2017-02-06T04:45:45.006Z,933.7
2017-02-06T04:46:53.093Z,933.8
2017-02-06T04:48:01.184Z,933.9
2017-02-06T04:49:09.380Z,933.9
2017-02-06T04:50:17.357Z,933.9
2017-02-06T04:51:25.444Z,933.9
2017-02-06T04:52:33.529Z,933.9
2017-02-06T04:53:41.616Z,934.0
2017-02-06T04:54:49.766Z,934.0
2017-02-06T04:55:57.790Z,934.0
2017-02-06T04:57:05.913Z,934.0
2017-02-06T04:58:13.969Z,934.0
2017-02-06T04:59:22.116Z,934.0
2017-02-06T05:00:30.459Z,934.0
2017-02-06T05:01:38.223Z,934.1
2017-02-06T05:02:46.314Z,934.0
2017-02-06T05:03:54.401Z,934.1
2017-02-06T05:05:02.683Z,934.1
2017-02-06T05:06:10.627Z,934.1
2017-02-06T05:07:18.661Z,934.1
2017-02-06T05:08:26.740Z,934.1
2017-02-06T05:09:34.835Z,934.1
2017-02-06T05:10:42.955Z,934.2
2017-02-06T05:11:51.127Z,934.2
2017-02-06T05:12:59.098Z,934.3
2017-02-06T05:14:07.187Z,934.3
2017-02-06T05:15:15.274Z,934.3
2017-02-06T05:16:23.411Z,934.3
2017-02-06T05:17:31.569Z,934.3
2017-02-06T05:18:39.536Z,934.3
2017-02-06T05:19:47.617Z,934.3
2017-02-06T05:20:55.707Z,934.3
2017-02-06T05:22:03.917Z,934.4
2017-02-06T05:23:11.951Z,934.4
2017-02-06T05:24:19.973Z,934.4
2017-02-06T05:25:28.066Z,934.4
2017-02-06T05:26:36.154Z,934.5
2017-02-06T05:27:44.253Z,934.5
2017-02-06T05:28:52.451Z,934.5
2017-02-06T05:30:00.422Z,934.5
2017-02-06T05:31:08.506Z,934.5
2017-02-06T05:32:16.735Z,934.6
2017-02-06T05:33:24.681Z,934.6
2017-02-06T05:34:32.893Z,934.6
2017-02-06T05:35:40.854Z,934.7
2017-02-06T05:36:48.944Z,934.7
2017-02-06T05:37:57.034Z,934.7
2017-02-06T05:39:05.119Z,934.7
2017-02-06T05:40:13.264Z,934.7
2017-02-06T05:41:21.295Z,934.7
2017-02-06T05:42:29.383Z,934.7
2017-02-06T05:43:37.464Z,934.8
2017-02-06T05:44:45.555Z,934.8
2017-02-06T05:45:54.564Z,934.9
2017-02-06T05:47:01.737Z,934.8
2017-02-06T05:48:10.112Z,934.8
2017-02-06T05:49:17.920Z,934.9
2017-02-06T05:50:26.010Z,934.9
2017-02-06T05:51:34.152Z,934.9
2017-02-06T05:52:42.181Z,934.9
2017-02-06T05:53:50.276Z,934.9
2017-02-06T05:54:58.356Z,934.9
2017-02-06T05:56:06.443Z,934.9
2017-02-06T05:57:14.591Z,934.9
2017-02-06T05:58:22.700Z,934.9
2017-02-06T05:59:30.781Z,934.9
2017-02-06T06:00:38.795Z,934.9
2017-02-06T06:01:46.882Z,934.9
2017-02-06T06:02:55.099Z,934.9
2017-02-06T06:04:03.362Z,935.0
2017-02-06T06:05:11.152Z,935.0
2017-02-06T06:06:19.250Z,935.0
2017-02-06T06:07:27.328Z,935.0
2017-02-06T06:08:35.473Z,935.0
2017-02-06T06:09:43.509Z,935.0
2017-02-06T06:10:51.596Z,935.0
2017-02-06T06:11:59.678Z,935.0
2017-02-06T06:13:07.773Z,935.1
2017-02-06T06:14:16.101Z,935.0
2017-02-06T06:15:23.952Z,935.0
2017-02-06T06:16:32.034Z,935.1
2017-02-06T06:17:40.120Z,935.1
2017-02-06T06:18:48.205Z,935.1
2017-02-06T06:19:56.355Z,935.1
2017-02-06T06:21:04.394Z,935.1
2017-02-06T06:22:12.513Z,935.1
2017-02-06T06:23:20.561Z,935.1
2017-02-06T06:24:28.673Z,935.1
2017-02-06T06:25:36.811Z,935.1
2017-02-06T06:26:44.826Z,935.2
2017-02-06T06:27:52.910Z,935.1
2017-02-06T06:29:01.004Z,935.2
2017-02-06T06:30:09.257Z,935.2
2017-02-06T06:31:18.875Z,935.3
2017-02-06T06:32:25.264Z,935.3
2017-02-06T06:33:33.352Z,935.3
2017-02-06T06:34:41.442Z,935.2
2017-02-06T06:35:49.589Z,935.3
2017-02-06T06:36:57.685Z,935.3
2017-02-06T06:38:05.708Z,935.3
2017-02-06T06:39:13.795Z,935.4
2017-02-06T06:40:21.882Z,935.3
2017-02-06T06:41:30.061Z,935.4
2017-02-06T06:42:38.174Z,935.4
2017-02-06T06:43:46.140Z,935.4
2017-02-06T06:44:54.229Z,935.4
2017-02-06T06:46:02.315Z,935.5
2017-02-06T06:47:10.398Z,935.5
2017-02-06T06:48:18.812Z,935.5
2017-02-06T06:49:26.577Z,935.6
2017-02-06T06:50:34.668Z,935.6
2017-02-06T06:51:43.062Z,935.6
2017-02-06T06:52:50.853Z,935.6
2017-02-06T06:53:58.990Z,935.6
2017-02-06T06:55:07.019Z,935.7
2017-02-06T06:56:15.111Z,935.7
2017-02-06T06:57:23.207Z,935.8
2017-02-06T06:58:31.293Z,935.8
2017-02-06T06:59:39.440Z,935.8
2017-02-06T07:00:47.478Z,935.9
2017-02-06T07:01:55.690Z,935.9
2017-02-06T07:03:03.790Z,935.9
2017-02-06T07:04:11.737Z,935.9
2017-02-06T07:05:19.945Z,935.9
2017-02-06T07:06:27.910Z,935.9
2017-02-06T07:07:36.064Z,936.0
2017-02-06T07:08:44.094Z,936.0
2017-02-06T07:09:52.180Z,936.0
2017-02-06T07:11:00.382Z,936.0
2017-02-06T07:12:08.356Z,936.0
2017-02-06T07:13:16.472Z,936.1
2017-02-06T07:14:25.074Z,936.1
2017-02-06T07:15:32.637Z,936.1
2017-02-06T07:16:40.841Z,936.2
2017-02-06T07:17:48.804Z,936.2
2017-02-06T07:18:56.888Z,936.2
2017-02-06T07:20:04.987Z,936.2
2017-02-06T07:21:13.073Z,936.2
2017-02-06T07:22:21.215Z,936.3
2017-02-06T07:23:29.374Z,936.3
2017-02-06T07:24:37.862Z,936.3
2017-02-06T07:25:45.422Z,936.3
2017-02-06T07:26:53.505Z,936.3
2017-02-06T07:28:01.713Z,936.3
2017-02-06T07:29:09.862Z,936.3
2017-02-06T07:30:17.767Z,936.3
2017-02-06T07:31:25.857Z,936.3
2017-02-06T07:32:33.943Z,936.4
2017-02-06T07:33:42.085Z,936.4
2017-02-06T07:34:50.159Z,936.4
2017-02-06T07:35:58.207Z,936.5
2017-02-06T07:37:06.294Z,936.5
2017-02-06T07:38:14.393Z,936.5
2017-02-06T07:39:22.769Z,936.5
2017-02-06T07:40:30.560Z,936.6
2017-02-06T07:41:38.653Z,936.5
2017-02-06T07:42:46.747Z,936.6
2017-02-06T07:43:54.829Z,936.6
2017-02-06T07:45:03.051Z,936.6
2017-02-06T07:46:11.005Z,936.6
2017-02-06T07:47:19.109Z,936.6
2017-02-06T07:48:27.190Z,936.6
2017-02-06T07:49:35.278Z,936.6
2017-02-06T07:50:43.532Z,936.6
2017-02-06T07:51:51.451Z,936.6
2017-02-06T07:52:59.538Z,936.6
2017-02-06T07:54:08.029Z,936.6
2017-02-06T07:55:15.779Z,936.6
2017-02-06T07:56:23.903Z,936.7
2017-02-06T07:57:31.891Z,936.7
2017-02-06T07:58:39.982Z,936.7
2017-02-06T07:59:48.080Z,936.7
2017-02-06T08:00:56.327Z,936.7
2017-02-06T08:02:04.878Z,936.7
2017-02-06T08:03:12.351Z,936.7
2017-02-06T08:04:20.438Z,936.7
2017-02-06T08:05:28.633Z,936.7
2017-02-06T08:06:36.605Z,936.8
2017-02-06T08:07:45.626Z,936.7
2017-02-06T08:08:53.129Z,936.8
2017-02-06T08:10:00.873Z,936.8
2017-02-06T08:11:09.019Z,936.8
2017-02-06T08:12:17.245Z,936.8
2017-02-06T08:13:25.401Z,936.8
2017-02-06T08:14:33.219Z,936.8
2017-02-06T08:15:41.459Z,936.8
2017-02-06T08:16:49.544Z,936.8
2017-02-06T08:17:57.485Z,936.8
2017-02-06T08:19:05.630Z,936.9
2017-02-06T08:20:13.660Z,936.9
2017-02-06T08:21:21.745Z,936.8
2017-02-06T08:22:29.834Z,936.9
2017-02-06T08:23:38.107Z,936.9
2017-02-06T08:24:46.131Z,936.9
2017-02-06T08:25:54.095Z,936.9
2017-02-06T08:27:02.244Z,936.9
2017-02-06T08:28:10.320Z,936.9
2017-02-06T08:29:18.360Z,937.0
2017-02-06T08:30:26.853Z,937.0
2017-02-06T08:31:34.541Z,937.0
2017-02-06T08:32:42.627Z,937.0
2017-02-06T08:33:50.869Z,937.0
2017-02-06T08:34:58.955Z,937.0
2017-02-06T08:36:07.021Z,937.0
2017-02-06T08:37:14.982Z,937.0
2017-02-06T08:38:23.256Z,937.1
2017-02-06T08:39:31.155Z,937.1
2017-02-06T08:40:39.239Z,937.1
2017-02-06T08:41:47.393Z,937.1
2017-02-06T08:42:55.484Z,937.1
2017-02-06T08:44:03.521Z,937.1
2017-02-06T08:45:11.659Z,937.1
2017-02-06T08:46:19.766Z,937.1
2017-02-06T08:47:27.898Z,937.1
2017-02-06T08:48:36.066Z,937.1
2017-02-06T08:49:44.137Z,937.1
2017-02-06T08:50:52.050Z,937.2
2017-02-06T08:52:00.129Z,937.2
2017-02-06T08:53:08.269Z,937.2
2017-02-06T08:54:16.300Z,937.2
2017-02-06T08:55:24.388Z,937.2
2017-02-06T08:56:32.469Z,937.2
2017-02-06T08:57:40.559Z,937.2
2017-02-06T08:58:48.769Z,937.2
2017-02-06T08:59:56.737Z,937.3
2017-02-06T09:01:04.825Z,937.3
2017-02-06T09:02:12.915Z,937.3
2017-02-06T09:03:21.001Z,937.3
2017-02-06T09:04:29.422Z,937.3
2017-02-06T09:05:37.222Z,937.4
2017-02-06T09:06:45.312Z,937.4
2017-02-06T09:07:53.348Z,937.4
2017-02-06T09:09:01.436Z,937.4
2017-02-06T09:10:09.773Z,937.4
2017-02-06T09:11:17.612Z,937.4
2017-02-06T09:12:25.702Z,937.5
2017-02-06T09:13:33.789Z,937.5
2017-02-06T09:14:41.933Z,937.5
2017-02-06T09:15:50.084Z,937.4
2017-02-06T09:16:58.108Z,937.5
2017-02-06T09:18:06.140Z,937.4
2017-02-06T09:19:14.233Z,937.4
2017-02-06T09:20:22.345Z,937.4
2017-02-06T09:21:30.457Z,937.4
2017-02-06T09:22:38.490Z,937.4
2017-02-06T09:23:46.579Z,937.4
2017-02-06T09:24:54.669Z,937.5
2017-02-06T09:26:02.763Z,937.5
2017-02-06T09:27:10.918Z,937.5
2017-02-06T09:28:19.028Z,937.6
2017-02-06T09:29:27.030Z,937.6
2017-02-06T09:30:35.244Z,937.6
2017-02-06T09:31:43.205Z,937.6
2017-02-06T09:32:51.694Z,937.6
2017-02-06T09:33:59.535Z,937.7
2017-02-06T09:35:07.621Z,937.7
2017-02-06T09:36:15.716Z,937.7
2017-02-06T09:37:23.789Z,937.7
2017-02-06T09:38:32.082Z,937.7
2017-02-06T09:39:39.977Z,937.7
2017-02-06T09:40:48.062Z,937.7
2017-02-06T09:41:56.153Z,937.8
2017-02-06T09:43:04.165Z,937.8
2017-02-06T09:44:12.720Z,937.8
2017-02-06T09:45:20.349Z,937.8
2017-02-06T09:46:28.745Z,937.8
2017-02-06T09:47:36.580Z,937.8
2017-02-06T09:48:44.665Z,937.8
2017-02-06T09:49:52.858Z,937.8
2017-02-06T09:51:00.853Z,937.8
2017-02-06T09:52:08.946Z,937.9
2017-02-06T09:53:16.939Z,937.9
2017-02-06T09:54:25.171Z,937.9
2017-02-06T09:55:33.451Z,937.9
2017-02-06T09:56:41.295Z,937.9
2017-02-06T09:57:49.238Z,938.0
2017-02-06T09:58:57.440Z,938.0
2017-02-06T10:00:05.623Z,938.1
2017-02-06T10:01:14.183Z,938.0
2017-02-06T10:02:21.716Z,938.0
2017-02-06T10:03:29.836Z,938.1
2017-02-06T10:04:37.987Z,938.1
2017-02-06T10:05:45.856Z,938.1
2017-02-06T10:06:54.351Z,938.1
2017-02-06T10:08:02.247Z,938.2
2017-02-06T10:09:10.272Z,938.1
2017-02-06T10:10:18.415Z,938.2
2017-02-06T10:11:26.452Z,938.2
2017-02-06T10:12:34.497Z,938.2
2017-02-06T10:13:42.629Z,938.2
2017-02-06T10:14:50.697Z,938.2
2017-02-06T10:15:58.818Z,938.3
2017-02-06T10:17:06.729Z,938.3
2017-02-06T10:18:14.892Z,938.3
2017-02-06T10:19:23.063Z,938.3
2017-02-06T10:20:31.184Z,938.3
2017-02-06T10:21:39.233Z,938.4
2017-02-06T10:22:47.321Z,938.4
2017-02-06T10:23:55.514Z,938.4
2017-02-06T10:25:03.528Z,938.4
2017-02-06T10:26:11.583Z,938.4
2017-02-06T10:27:19.690Z,938.4
2017-02-06T10:28:27.761Z,938.4
2017-02-06T10:29:35.967Z,938.4
2017-02-06T10:30:43.957Z,938.4
2017-02-06T10:31:51.871Z,938.4
2017-02-06T10:33:00.299Z,938.4
2017-02-06T10:34:08.178Z,938.4
2017-02-06T10:35:16.196Z,938.5
2017-02-06T10:36:24.229Z,938.5
2017-02-06T10:37:32.473Z,938.5
2017-02-06T10:38:40.411Z,938.6
2017-02-06T10:39:48.497Z,938.6
2017-02-06T10:40:56.989Z,938.6
2017-02-06T10:42:04.815Z,938.6
2017-02-06T10:43:12.756Z,938.6
2017-02-06T10:44:21.039Z,938.6
2017-02-06T10:45:29.080Z,938.6
2017-02-06T10:46:37.299Z,938.6
2017-02-06T10:47:45.281Z,938.6
2017-02-06T10:48:53.197Z,938.6
2017-02-06T10:50:01.343Z,938.6
2017-02-06T10:51:09.375Z,938.6
2017-02-06T10:52:17.579Z,938.7
2017-02-06T10:53:25.694Z,938.7
2017-02-06T10:54:33.652Z,938.7
2017-02-06T10:55:41.738Z,938.8
2017-02-06T10:56:49.827Z,938.8
2017-02-06T10:57:57.971Z,938.8
2017-02-06T10:59:05.998Z,938.8
2017-02-06T11:00:14.090Z,938.8
2017-02-06T11:01:22.180Z,938.8
2017-02-06T11:02:30.270Z,938.9
2017-02-06T11:03:38.410Z,938.9
2017-02-06T11:04:46.446Z,938.9
2017-02-06T11:05:54.654Z,938.9
2017-02-06T11:07:02.616Z,938.9
2017-02-06T11:08:10.710Z,938.9
2017-02-06T11:09:19.028Z,938.9
2017-02-06T11:10:26.884Z,938.9
2017-02-06T11:11:34.973Z,938.9
2017-02-06T11:12:43.068Z,938.9
2017-02-06T11:13:51.156Z,938.9
2017-02-06T11:14:59.365Z,938.9
2017-02-06T11:16:07.331Z,938.9
2017-02-06T11:17:15.418Z,938.9
2017-02-06T11:18:23.506Z,938.8
2017-02-06T11:19:31.700Z,938.9
2017-02-06T11:20:39.736Z,938.9
2017-02-06T11:21:47.889Z,938.9
2017-02-06T11:22:55.860Z,938.8
2017-02-06T11:24:03.950Z,938.9
2017-02-06T11:25:12.321Z,938.9
2017-02-06T11:26:20.189Z,938.9
2017-02-06T11:27:28.214Z,939.0
2017-02-06T11:28:36.304Z,939.0
2017-02-06T11:29:44.798Z,939.0
2017-02-06T11:30:52.473Z,939.0
2017-02-06T11:32:00.626Z,939.0
2017-02-06T11:33:08.654Z,939.0
2017-02-06T11:34:16.740Z,939.0
2017-02-06T11:35:25.023Z,939.0
2017-02-06T11:36:33.074Z,939.0
2017-02-06T11:37:41.124Z,939.0
2017-02-06T11:38:49.091Z,939.0
2017-02-06T11:39:57.306Z,939.0
2017-02-06T11:41:05.319Z,939.0
2017-02-06T11:42:13.507Z,939.0
2017-02-06T11:43:21.949Z,939.0
2017-02-06T11:44:29.685Z,939.0
2017-02-06T11:45:37.798Z,939.0
2017-02-06T11:46:45.713Z,938.9
2017-02-06T11:47:53.806Z,938.9
2017-02-06T11:49:02.011Z,938.9
2017-02-06T11:50:09.980Z,939.0
2017-02-06T11:51:18.070Z,939.0
2017-02-06T11:52:26.176Z,939.0
2017-02-06T11:53:34.308Z,939.0
2017-02-06T11:54:42.751Z,938.9
2017-02-06T11:55:50.796Z,938.9
2017-02-06T11:56:58.885Z,938.9
2017-02-06T11:58:06.623Z,939.0
2017-02-06T11:59:14.698Z,939.0
2017-02-06T12:00:23.192Z,939.0
2017-02-06T12:01:30.879Z,938.9
2017-02-06T12:02:39.000Z,939.0
2017-02-06T12:03:47.053Z,939.0
2017-02-06T12:04:55.143Z,939.0
2017-02-06T12:06:03.347Z,939.0
2017-02-06T12:07:11.371Z,939.0
2017-02-06T12:08:19.413Z,939.0
2017-02-06T12:09:27.551Z,939.0
2017-02-06T12:10:35.587Z,939.0
2017-02-06T12:11:43.738Z,939.1
2017-02-06T12:12:51.835Z,939.1
2017-02-06T12:13:59.856Z,939.1
2017-02-06T12:15:07.955Z,939.1
2017-02-06T12:16:16.039Z,939.1
2017-02-06T12:17:24.280Z,939.1
2017-02-06T12:18:32.284Z,939.1
2017-02-06T12:19:40.314Z,939.1
2017-02-06T12:20:48.393Z,939.1
2017-02-06T12:21:56.479Z,939.1
2017-02-06T12:23:04.809Z,939.1
2017-02-06T12:24:12.679Z,939.1
2017-02-06T12:25:20.877Z,939.0
2017-02-06T12:26:28.832Z,939.0
2017-02-06T12:27:37.435Z,939.1
2017-02-06T12:36:41.688Z,939.1
2017-02-06T12:37:49.719Z,939.0
2017-02-06T12:38:57.812Z,939.0
2017-02-06T12:40:05.990Z,939.1
2017-02-06T12:41:14.393Z,939.1
2017-02-06T12:42:22.123Z,939.1
2017-02-06T12:43:30.159Z,939.1
2017-02-06T12:44:38.308Z,939.1
2017-02-06T12:45:46.332Z,939.1
2017-02-06T12:46:54.423Z,939.0
2017-02-06T12:48:02.633Z,939.0
2017-02-06T12:49:10.760Z,939.0
2017-02-06T12:50:18.834Z,939.0
2017-02-06T12:51:26.774Z,939.0
2017-02-06T12:52:34.874Z,939.0
2017-02-06T12:53:43.009Z,939.1
2017-02-06T12:54:51.047Z,939.0
2017-02-06T12:55:59.134Z,939.0
2017-02-06T12:57:08.034Z,939.0
2017-02-06T12:58:15.306Z,939.0
2017-02-06T12:59:23.514Z,939.1
2017-02-06T13:00:31.486Z,939.1
2017-02-06T13:01:39.566Z,939.1
2017-02-06T13:02:47.660Z,939.1
2017-02-06T13:03:55.742Z,939.1
2017-02-06T13:05:03.951Z,939.1
2017-02-06T13:06:12.626Z,939.1
2017-02-06T13:07:20.010Z,939.1
2017-02-06T13:08:28.097Z,939.1
2017-02-06T13:09:36.550Z,939.0
2017-02-06T13:10:44.657Z,939.1
2017-02-06T13:11:52.532Z,939.1
2017-02-06T13:13:00.835Z,939.1
2017-02-06T13:14:08.810Z,939.1
2017-02-06T13:15:17.221Z,939.1
2017-02-06T13:16:25.194Z,939.0
2017-02-06T13:17:33.505Z,939.1
2017-02-06T13:18:41.266Z,939.1
2017-02-06T13:19:48.989Z,939.1
2017-02-06T13:20:57.437Z,939.1
2017-02-06T13:22:07.333Z,939.1
2017-02-06T13:23:13.401Z,939.1
2017-02-06T13:24:21.554Z,939.1
2017-02-06T13:25:29.497Z,939.1
2017-02-06T13:26:38.269Z,939.1
2017-02-06T13:27:46.011Z,939.1
2017-02-06T13:28:54.561Z,939.2
2017-02-06T13:30:02.411Z,939.2
2017-02-06T13:31:10.009Z,939.2
2017-02-06T13:32:18.072Z,939.1
2017-02-06T13:33:28.250Z,939.1
2017-02-06T13:34:34.667Z,939.1
2017-02-06T13:35:42.302Z,939.1
2017-02-06T13:36:50.311Z,939.2
2017-02-06T13:37:58.406Z,939.1
2017-02-06T13:39:06.659Z,939.1
2017-02-06T13:40:14.580Z,939.2
2017-02-06T13:41:22.667Z,939.1
2017-02-06T13:42:30.756Z,939.1
2017-02-06T13:43:38.850Z,939.1
2017-02-06T13:44:47.052Z,939.1
2017-02-06T13:45:55.025Z,939.1
2017-02-06T13:47:03.111Z,939.1
2017-02-06T13:48:11.288Z,939.1
2017-02-06T13:49:19.287Z,939.2
2017-02-06T13:50:27.495Z,939.2
2017-02-06T13:51:35.470Z,939.2
2017-02-06T13:52:43.554Z,939.1
2017-02-06T13:53:51.639Z,939.2
2017-02-06T13:54:59.731Z,939.1
2017-02-06T13:56:07.875Z,939.1
2017-02-06T13:57:15.908Z,939.1
2017-02-06T13:58:24.003Z,939.1
2017-02-06T13:59:32.152Z,939.1
2017-02-06T14:00:40.299Z,939.1
2017-02-06T14:01:48.328Z,939.1
2017-02-06T14:02:56.362Z,939.1
2017-02-06T14:04:04.632Z,939.2
2017-02-06T14:05:12.531Z,939.1
2017-02-06T14:06:20.628Z,939.2
2017-02-06T14:07:28.770Z,939.2
2017-02-06T14:08:36.799Z,939.2
2017-02-06T14:09:44.892Z,939.2
2017-02-06T14:10:53.539Z,939.2
2017-02-06T14:12:01.489Z,939.3
2017-02-06T14:13:09.232Z,939.3
2017-02-06T14:14:17.307Z,939.3
2017-02-06T14:15:25.331Z,939.3
2017-02-06T14:16:35.491Z,939.3
2017-02-06T14:17:41.510Z,939.3
2017-02-06T14:18:49.718Z,939.4
2017-02-06T14:19:57.877Z,939.3
2017-02-06T14:21:05.774Z,939.4
2017-02-06T14:22:13.865Z,939.4
2017-02-06T14:23:21.950Z,939.4
2017-02-06T14:24:30.096Z,939.4
2017-02-06T14:25:38.136Z,939.4
2017-02-06T14:26:46.221Z,939.4
2017-02-06T14:27:54.310Z,939.5
2017-02-06T14:29:02.393Z,939.5
2017-02-06T14:30:10.608Z,939.5
2017-02-06T14:31:18.581Z,939.5
2017-02-06T14:32:26.721Z,939.5
2017-02-06T14:33:34.759Z,939.5
2017-02-06T14:34:42.849Z,939.5
2017-02-06T14:35:51.053Z,939.5
2017-02-06T14:36:59.029Z,939.5
2017-02-06T14:38:07.114Z,939.5
2017-02-06T14:39:15.216Z,939.5
2017-02-06T14:40:23.301Z,939.5
2017-02-06T14:41:31.448Z,939.6
2017-02-06T14:42:39.479Z,939.6
2017-02-06T14:43:47.564Z,939.6
2017-02-06T14:44:55.659Z,939.6